sensor_id;sensor_type;location;lat;lon;timestamp;P1;durP1;ratioP1;P2;durP2;ratioP2
15699;SDS011;7950;42.744;23.174;2023-02-26T00:01:49;14.70;;;5.70;;
15699;SDS011;7950;42.744;23.174;2023-02-26T00:04:18;13.53;;;6.07;;
15699;SDS011;7950;42.744;23.174;2023-02-26T00:06:46;12.50;;;5.40;;
15699;SDS011;7950;42.744;23.174;2023-02-26T00:09:26;10.17;;;5.30;;
15699;SDS011;7950;42.744;23.174;2023-02-26T00:11:55;12.50;;;5.90;;
15699;SDS011;7950;42.744;23.174;2023-02-26T00:14:25;12.57;;;5.57;;
15699;SDS011;7950;42.744;23.174;2023-02-26T00:16:56;12.40;;;6.40;;
15699;SDS011;7950;42.744;23.174;2023-02-26T00:19:55;16.90;;;5.93;;
15699;SDS011;7950;42.744;23.174;2023-02-26T00:22:25;18.40;;;6.30;;
15699;SDS011;7950;42.744;23.174;2023-02-26T00:24:55;12.30;;;5.67;;
15699;SDS011;7950;42.744;23.174;2023-02-26T00:27:24;11.30;;;6.20;;
15699;SDS011;7950;42.744;23.174;2023-02-26T00:29:52;11.93;;;5.80;;
15699;SDS011;7950;42.744;23.174;2023-02-26T00:32:22;14.13;;;6.00;;
15699;SDS011;7950;42.744;23.174;2023-02-26T00:34:51;10.67;;;6.07;;
15699;SDS011;7950;42.744;23.174;2023-02-26T00:37:33;12.10;;;5.73;;
15699;SDS011;7950;42.744;23.174;2023-02-26T00:40:28;20.87;;;6.50;;
15699;SDS011;7950;42.744;23.174;2023-02-26T00:43:08;15.10;;;6.53;;
15699;SDS011;7950;42.744;23.174;2023-02-26T00:45:43;14.97;;;6.70;;
15699;SDS011;7950;42.744;23.174;2023-02-26T00:48:32;17.63;;;6.27;;
15699;SDS011;7950;42.744;23.174;2023-02-26T00:51:16;19.80;;;6.67;;
15699;SDS011;7950;42.744;23.174;2023-02-26T00:53:56;22.60;;;6.30;;
15699;SDS011;7950;42.744;23.174;2023-02-26T00:56:36;20.43;;;6.80;;
15699;SDS011;7950;42.744;23.174;2023-02-26T00:59:04;20.73;;;6.67;;
15699;SDS011;7950;42.744;23.174;2023-02-26T01:01:33;16.67;;;6.60;;
15699;SDS011;7950;42.744;23.174;2023-02-26T01:04:21;17.30;;;7.07;;
15699;SDS011;7950;42.744;23.174;2023-02-26T01:06:52;26.83;;;7.13;;
15699;SDS011;7950;42.744;23.174;2023-02-26T01:09:24;16.90;;;6.03;;
15699;SDS011;7950;42.744;23.174;2023-02-26T01:11:57;22.57;;;6.10;;
15699;SDS011;7950;42.744;23.174;2023-02-26T01:14:29;19.93;;;5.70;;
15699;SDS011;7950;42.744;23.174;2023-02-26T01:17:02;20.97;;;5.77;;
15699;SDS011;7950;42.744;23.174;2023-02-26T01:19:38;21.70;;;5.40;;
15699;SDS011;7950;42.744;23.174;2023-02-26T01:22:16;13.27;;;5.10;;
15699;SDS011;7950;42.744;23.174;2023-02-26T01:24:51;17.23;;;5.90;;
15699;SDS011;7950;42.744;23.174;2023-02-26T01:27:41;21.83;;;5.53;;
15699;SDS011;7950;42.744;23.174;2023-02-26T01:30:10;16.60;;;5.47;;
15699;SDS011;7950;42.744;23.174;2023-02-26T01:32:41;14.57;;;5.53;;
15699;SDS011;7950;42.744;23.174;2023-02-26T01:35:20;15.60;;;5.50;;
15699;SDS011;7950;42.744;23.174;2023-02-26T01:38:06;13.20;;;5.73;;
15699;SDS011;7950;42.744;23.174;2023-02-26T01:43:58;9.17;;;4.77;;
15699;SDS011;7950;42.744;23.174;2023-02-26T01:49:41;13.60;;;5.13;;
15699;SDS011;7950;42.744;23.174;2023-02-26T01:55:31;17.07;;;5.97;;
15699;SDS011;7950;42.744;23.174;2023-02-26T01:57:59;16.57;;;5.43;;
15699;SDS011;7950;42.744;23.174;2023-02-26T02:00:31;16.57;;;5.50;;
15699;SDS011;7950;42.744;23.174;2023-02-26T02:02:59;22.37;;;6.03;;
15699;SDS011;7950;42.744;23.174;2023-02-26T02:08:27;20.77;;;5.87;;
15699;SDS011;7950;42.744;23.174;2023-02-26T02:10:58;12.33;;;5.20;;
15699;SDS011;7950;42.744;23.174;2023-02-26T02:13:30;14.80;;;5.83;;
15699;SDS011;7950;42.744;23.174;2023-02-26T02:16:18;15.43;;;5.07;;
15699;SDS011;7950;42.744;23.174;2023-02-26T02:18:59;17.10;;;4.97;;
15699;SDS011;7950;42.744;23.174;2023-02-26T02:21:53;14.93;;;4.47;;
15699;SDS011;7950;42.744;23.174;2023-02-26T02:24:44;11.57;;;5.00;;
15699;SDS011;7950;42.744;23.174;2023-02-26T02:27:37;12.97;;;5.33;;
15699;SDS011;7950;42.744;23.174;2023-02-26T02:30:23;12.37;;;4.47;;
15699;SDS011;7950;42.744;23.174;2023-02-26T02:33:24;8.40;;;4.60;;
15699;SDS011;7950;42.744;23.174;2023-02-26T02:36:02;14.43;;;4.93;;
15699;SDS011;7950;42.744;23.174;2023-02-26T02:38:41;8.00;;;4.20;;
15699;SDS011;7950;42.744;23.174;2023-02-26T02:41:18;11.70;;;4.70;;
15699;SDS011;7950;42.744;23.174;2023-02-26T02:43:53;11.23;;;4.53;;
15699;SDS011;7950;42.744;23.174;2023-02-26T02:46:27;8.80;;;4.43;;
15699;SDS011;7950;42.744;23.174;2023-02-26T02:49:02;12.07;;;3.90;;
15699;SDS011;7950;42.744;23.174;2023-02-26T02:51:37;13.13;;;4.80;;
15699;SDS011;7950;42.744;23.174;2023-02-26T02:54:12;16.37;;;4.80;;
15699;SDS011;7950;42.744;23.174;2023-02-26T02:56:48;10.07;;;4.37;;
15699;SDS011;7950;42.744;23.174;2023-02-26T02:59:24;8.43;;;4.10;;
15699;SDS011;7950;42.744;23.174;2023-02-26T03:02:09;12.00;;;4.30;;
15699;SDS011;7950;42.744;23.174;2023-02-26T03:04:46;10.87;;;4.07;;
15699;SDS011;7950;42.744;23.174;2023-02-26T03:07:15;14.80;;;4.30;;
15699;SDS011;7950;42.744;23.174;2023-02-26T03:09:44;15.03;;;5.10;;
15699;SDS011;7950;42.744;23.174;2023-02-26T03:12:13;9.37;;;4.13;;
15699;SDS011;7950;42.744;23.174;2023-02-26T03:14:42;10.47;;;4.27;;
15699;SDS011;7950;42.744;23.174;2023-02-26T03:20:20;10.03;;;4.23;;
15699;SDS011;7950;42.744;23.174;2023-02-26T03:22:59;9.57;;;4.37;;
15699;SDS011;7950;42.744;23.174;2023-02-26T03:25:38;10.60;;;4.33;;
15699;SDS011;7950;42.744;23.174;2023-02-26T03:28:17;12.53;;;3.60;;
15699;SDS011;7950;42.744;23.174;2023-02-26T03:30:56;11.87;;;4.70;;
15699;SDS011;7950;42.744;23.174;2023-02-26T03:33:33;7.50;;;3.80;;
15699;SDS011;7950;42.744;23.174;2023-02-26T03:36:15;12.63;;;4.90;;
15699;SDS011;7950;42.744;23.174;2023-02-26T03:38:53;8.97;;;4.50;;
15699;SDS011;7950;42.744;23.174;2023-02-26T03:41:29;9.13;;;3.50;;
15699;SDS011;7950;42.744;23.174;2023-02-26T03:44:06;11.63;;;4.23;;
15699;SDS011;7950;42.744;23.174;2023-02-26T03:46:41;8.93;;;3.60;;
15699;SDS011;7950;42.744;23.174;2023-02-26T03:49:16;14.53;;;4.20;;
15699;SDS011;7950;42.744;23.174;2023-02-26T03:51:55;13.57;;;4.33;;
15699;SDS011;7950;42.744;23.174;2023-02-26T03:54:26;13.53;;;3.57;;
15699;SDS011;7950;42.744;23.174;2023-02-26T03:57:02;11.17;;;3.83;;
15699;SDS011;7950;42.744;23.174;2023-02-26T03:59:42;12.73;;;4.33;;
15699;SDS011;7950;42.744;23.174;2023-02-26T04:02:11;10.07;;;3.97;;
15699;SDS011;7950;42.744;23.174;2023-02-26T04:04:46;10.80;;;4.47;;
15699;SDS011;7950;42.744;23.174;2023-02-26T04:07:22;8.93;;;3.57;;
15699;SDS011;7950;42.744;23.174;2023-02-26T04:09:51;7.73;;;3.60;;
15699;SDS011;7950;42.744;23.174;2023-02-26T04:12:20;10.67;;;3.83;;
15699;SDS011;7950;42.744;23.174;2023-02-26T04:14:50;12.57;;;3.97;;
15699;SDS011;7950;42.744;23.174;2023-02-26T04:17:19;12.23;;;4.07;;
15699;SDS011;7950;42.744;23.174;2023-02-26T04:19:47;11.63;;;4.20;;
15699;SDS011;7950;42.744;23.174;2023-02-26T04:22:16;13.03;;;4.47;;
15699;SDS011;7950;42.744;23.174;2023-02-26T04:24:46;11.70;;;4.30;;
15699;SDS011;7950;42.744;23.174;2023-02-26T04:27:14;10.87;;;4.40;;
15699;SDS011;7950;42.744;23.174;2023-02-26T04:29:43;9.60;;;4.13;;
15699;SDS011;7950;42.744;23.174;2023-02-26T04:32:11;13.10;;;4.90;;
15699;SDS011;7950;42.744;23.174;2023-02-26T04:34:40;12.20;;;4.97;;
15699;SDS011;7950;42.744;23.174;2023-02-26T04:37:09;10.20;;;4.30;;
15699;SDS011;7950;42.744;23.174;2023-02-26T04:39:37;11.03;;;4.03;;
15699;SDS011;7950;42.744;23.174;2023-02-26T04:42:07;12.43;;;4.03;;
15699;SDS011;7950;42.744;23.174;2023-02-26T04:44:35;8.93;;;4.20;;
15699;SDS011;7950;42.744;23.174;2023-02-26T04:47:04;12.77;;;4.10;;
15699;SDS011;7950;42.744;23.174;2023-02-26T04:49:32;10.63;;;3.57;;
15699;SDS011;7950;42.744;23.174;2023-02-26T04:52:01;18.93;;;4.37;;
15699;SDS011;7950;42.744;23.174;2023-02-26T04:57:49;15.30;;;3.93;;
15699;SDS011;7950;42.744;23.174;2023-02-26T05:00:18;14.07;;;4.70;;
15699;SDS011;7950;42.744;23.174;2023-02-26T05:02:47;14.53;;;4.30;;
15699;SDS011;7950;42.744;23.174;2023-02-26T05:05:15;16.90;;;4.80;;
15699;SDS011;7950;42.744;23.174;2023-02-26T05:07:44;14.67;;;4.10;;
15699;SDS011;7950;42.744;23.174;2023-02-26T05:10:12;14.07;;;4.10;;
15699;SDS011;7950;42.744;23.174;2023-02-26T05:12:41;8.23;;;3.93;;
15699;SDS011;7950;42.744;23.174;2023-02-26T05:18:05;10.83;;;3.97;;
15699;SDS011;7950;42.744;23.174;2023-02-26T05:20:33;11.30;;;3.97;;
15699;SDS011;7950;42.744;23.174;2023-02-26T05:23:02;20.10;;;4.90;;
15699;SDS011;7950;42.744;23.174;2023-02-26T05:25:31;15.33;;;4.20;;
15699;SDS011;7950;42.744;23.174;2023-02-26T05:27:59;13.77;;;4.73;;
15699;SDS011;7950;42.744;23.174;2023-02-26T05:30:28;9.60;;;3.60;;
15699;SDS011;7950;42.744;23.174;2023-02-26T05:32:58;13.70;;;4.70;;
15699;SDS011;7950;42.744;23.174;2023-02-26T05:35:26;15.77;;;3.97;;
15699;SDS011;7950;42.744;23.174;2023-02-26T05:37:55;12.23;;;3.90;;
15699;SDS011;7950;42.744;23.174;2023-02-26T05:40:23;14.67;;;4.30;;
15699;SDS011;7950;42.744;23.174;2023-02-26T05:42:52;10.40;;;4.23;;
15699;SDS011;7950;42.744;23.174;2023-02-26T05:45:20;12.33;;;3.80;;
15699;SDS011;7950;42.744;23.174;2023-02-26T05:47:54;13.40;;;4.07;;
15699;SDS011;7950;42.744;23.174;2023-02-26T05:50:23;16.57;;;4.33;;
15699;SDS011;7950;42.744;23.174;2023-02-26T05:52:52;12.97;;;4.27;;
15699;SDS011;7950;42.744;23.174;2023-02-26T05:55:21;17.23;;;5.97;;
15699;SDS011;7950;42.744;23.174;2023-02-26T05:57:49;18.70;;;5.07;;
15699;SDS011;7950;42.744;23.174;2023-02-26T06:00:18;16.47;;;4.77;;
15699;SDS011;7950;42.744;23.174;2023-02-26T06:02:48;14.73;;;4.10;;
15699;SDS011;7950;42.744;23.174;2023-02-26T06:05:16;10.30;;;4.10;;
15699;SDS011;7950;42.744;23.174;2023-02-26T06:07:46;16.17;;;4.27;;
15699;SDS011;7950;42.744;23.174;2023-02-26T06:10:15;18.27;;;4.50;;
15699;SDS011;7950;42.744;23.174;2023-02-26T06:12:44;15.83;;;4.10;;
15699;SDS011;7950;42.744;23.174;2023-02-26T06:18:09;14.10;;;4.37;;
15699;SDS011;7950;42.744;23.174;2023-02-26T06:20:37;15.00;;;4.03;;
15699;SDS011;7950;42.744;23.174;2023-02-26T06:23:07;15.70;;;4.23;;
15699;SDS011;7950;42.744;23.174;2023-02-26T06:25:36;15.37;;;3.60;;
15699;SDS011;7950;42.744;23.174;2023-02-26T06:28:04;18.57;;;4.10;;
15699;SDS011;7950;42.744;23.174;2023-02-26T06:30:34;21.47;;;4.60;;
15699;SDS011;7950;42.744;23.174;2023-02-26T06:33:03;14.60;;;3.90;;
15699;SDS011;7950;42.744;23.174;2023-02-26T06:35:32;22.53;;;4.40;;
15699;SDS011;7950;42.744;23.174;2023-02-26T06:38:00;29.70;;;4.13;;
15699;SDS011;7950;42.744;23.174;2023-02-26T06:40:30;15.53;;;4.70;;
15699;SDS011;7950;42.744;23.174;2023-02-26T06:42:59;19.53;;;4.33;;
15699;SDS011;7950;42.744;23.174;2023-02-26T06:45:27;20.63;;;4.47;;
15699;SDS011;7950;42.744;23.174;2023-02-26T06:47:56;15.67;;;4.07;;
15699;SDS011;7950;42.744;23.174;2023-02-26T06:50:24;22.30;;;4.70;;
15699;SDS011;7950;42.744;23.174;2023-02-26T06:52:53;14.70;;;3.83;;
15699;SDS011;7950;42.744;23.174;2023-02-26T06:55:22;16.60;;;3.60;;
15699;SDS011;7950;42.744;23.174;2023-02-26T07:01:08;15.60;;;4.83;;
15699;SDS011;7950;42.744;23.174;2023-02-26T07:03:37;15.83;;;4.20;;
15699;SDS011;7950;42.744;23.174;2023-02-26T07:06:06;17.17;;;3.73;;
15699;SDS011;7950;42.744;23.174;2023-02-26T07:08:56;16.07;;;3.97;;
15699;SDS011;7950;42.744;23.174;2023-02-26T07:11:25;21.30;;;4.40;;
15699;SDS011;7950;42.744;23.174;2023-02-26T07:13:55;15.50;;;4.17;;
15699;SDS011;7950;42.744;23.174;2023-02-26T07:16:23;19.13;;;3.60;;
15699;SDS011;7950;42.744;23.174;2023-02-26T07:18:52;15.87;;;3.53;;
15699;SDS011;7950;42.744;23.174;2023-02-26T07:21:21;14.53;;;4.17;;
15699;SDS011;7950;42.744;23.174;2023-02-26T07:23:49;20.83;;;4.87;;
15699;SDS011;7950;42.744;23.174;2023-02-26T07:26:18;21.37;;;4.27;;
15699;SDS011;7950;42.744;23.174;2023-02-26T07:28:47;16.83;;;4.13;;
15699;SDS011;7950;42.744;23.174;2023-02-26T07:31:16;13.30;;;3.90;;
15699;SDS011;7950;42.744;23.174;2023-02-26T07:33:45;11.47;;;4.43;;
15699;SDS011;7950;42.744;23.174;2023-02-26T07:36:14;16.27;;;4.17;;
15699;SDS011;7950;42.744;23.174;2023-02-26T07:38:42;11.57;;;4.00;;
15699;SDS011;7950;42.744;23.174;2023-02-26T07:41:11;19.03;;;4.60;;
15699;SDS011;7950;42.744;23.174;2023-02-26T07:43:39;15.27;;;4.50;;
15699;SDS011;7950;42.744;23.174;2023-02-26T07:46:08;15.07;;;4.33;;
15699;SDS011;7950;42.744;23.174;2023-02-26T07:48:38;18.00;;;4.50;;
15699;SDS011;7950;42.744;23.174;2023-02-26T07:51:07;17.77;;;4.63;;
15699;SDS011;7950;42.744;23.174;2023-02-26T07:53:36;18.17;;;4.27;;
15699;SDS011;7950;42.744;23.174;2023-02-26T07:56:05;14.87;;;4.83;;
15699;SDS011;7950;42.744;23.174;2023-02-26T07:58:33;23.07;;;4.50;;
15699;SDS011;7950;42.744;23.174;2023-02-26T08:01:02;15.67;;;4.00;;
15699;SDS011;7950;42.744;23.174;2023-02-26T08:03:30;16.67;;;4.13;;
15699;SDS011;7950;42.744;23.174;2023-02-26T08:06:01;15.90;;;4.57;;
15699;SDS011;7950;42.744;23.174;2023-02-26T08:08:30;21.63;;;4.47;;
15699;SDS011;7950;42.744;23.174;2023-02-26T08:10:59;17.83;;;4.47;;
15699;SDS011;7950;42.744;23.174;2023-02-26T08:13:29;17.17;;;5.53;;
15699;SDS011;7950;42.744;23.174;2023-02-26T08:15:57;20.37;;;4.10;;
15699;SDS011;7950;42.744;23.174;2023-02-26T08:18:26;18.30;;;4.23;;
15699;SDS011;7950;42.744;23.174;2023-02-26T08:20:54;18.87;;;5.10;;
15699;SDS011;7950;42.744;23.174;2023-02-26T08:26:18;14.40;;;4.20;;
15699;SDS011;7950;42.744;23.174;2023-02-26T08:28:46;33.43;;;5.87;;
15699;SDS011;7950;42.744;23.174;2023-02-26T08:31:15;14.30;;;4.63;;
15699;SDS011;7950;42.744;23.174;2023-02-26T08:33:44;19.80;;;4.83;;
15699;SDS011;7950;42.744;23.174;2023-02-26T08:36:13;13.57;;;3.53;;
15699;SDS011;7950;42.744;23.174;2023-02-26T08:38:41;18.10;;;4.03;;
15699;SDS011;7950;42.744;23.174;2023-02-26T08:41:11;20.30;;;4.17;;
15699;SDS011;7950;42.744;23.174;2023-02-26T08:43:40;18.30;;;3.90;;
15699;SDS011;7950;42.744;23.174;2023-02-26T08:46:08;14.97;;;3.80;;
15699;SDS011;7950;42.744;23.174;2023-02-26T08:48:46;18.47;;;4.37;;
15699;SDS011;7950;42.744;23.174;2023-02-26T08:51:15;16.97;;;4.00;;
15699;SDS011;7950;42.744;23.174;2023-02-26T08:53:44;18.33;;;4.37;;
15699;SDS011;7950;42.744;23.174;2023-02-26T08:56:14;18.50;;;7.53;;
15699;SDS011;7950;42.744;23.174;2023-02-26T08:58:43;20.73;;;4.23;;
15699;SDS011;7950;42.744;23.174;2023-02-26T09:01:12;34.00;;;4.97;;
15699;SDS011;7950;42.744;23.174;2023-02-26T09:03:43;18.20;;;4.03;;
15699;SDS011;7950;42.744;23.174;2023-02-26T09:09:05;18.80;;;4.03;;
15699;SDS011;7950;42.744;23.174;2023-02-26T09:11:35;15.70;;;4.50;;
15699;SDS011;7950;42.744;23.174;2023-02-26T09:14:04;15.10;;;3.60;;
15699;SDS011;7950;42.744;23.174;2023-02-26T09:16:32;12.53;;;4.00;;
15699;SDS011;7950;42.744;23.174;2023-02-26T09:19:02;18.80;;;4.23;;
15699;SDS011;7950;42.744;23.174;2023-02-26T09:21:32;26.17;;;4.57;;
15699;SDS011;7950;42.744;23.174;2023-02-26T09:24:02;18.83;;;4.30;;
15699;SDS011;7950;42.744;23.174;2023-02-26T09:26:30;22.83;;;4.77;;
15699;SDS011;7950;42.744;23.174;2023-02-26T09:29:01;18.13;;;3.97;;
15699;SDS011;7950;42.744;23.174;2023-02-26T09:31:29;27.90;;;4.77;;
15699;SDS011;7950;42.744;23.174;2023-02-26T09:33:59;21.20;;;3.97;;
15699;SDS011;7950;42.744;23.174;2023-02-26T09:36:28;14.90;;;4.10;;
15699;SDS011;7950;42.744;23.174;2023-02-26T09:38:56;19.70;;;4.73;;
15699;SDS011;7950;42.744;23.174;2023-02-26T09:41:27;18.40;;;4.13;;
15699;SDS011;7950;42.744;23.174;2023-02-26T09:44:12;15.03;;;4.30;;
15699;SDS011;7950;42.744;23.174;2023-02-26T09:46:51;26.57;;;4.87;;
15699;SDS011;7950;42.744;23.174;2023-02-26T09:49:31;21.17;;;4.07;;
15699;SDS011;7950;42.744;23.174;2023-02-26T09:52:17;14.77;;;4.10;;
15699;SDS011;7950;42.744;23.174;2023-02-26T09:54:53;17.97;;;4.67;;
15699;SDS011;7950;42.744;23.174;2023-02-26T09:57:28;17.60;;;4.33;;
15699;SDS011;7950;42.744;23.174;2023-02-26T10:00:01;17.63;;;4.57;;
15699;SDS011;7950;42.744;23.174;2023-02-26T10:02:43;24.20;;;4.50;;
15699;SDS011;7950;42.744;23.174;2023-02-26T10:05:28;12.40;;;3.90;;
15699;SDS011;7950;42.744;23.174;2023-02-26T10:08:10;19.07;;;4.73;;
15699;SDS011;7950;42.744;23.174;2023-02-26T10:10:46;15.97;;;4.17;;
15699;SDS011;7950;42.744;23.174;2023-02-26T10:13:22;18.60;;;5.63;;
15699;SDS011;7950;42.744;23.174;2023-02-26T10:16:08;16.13;;;4.10;;
15699;SDS011;7950;42.744;23.174;2023-02-26T10:18:46;18.13;;;3.73;;
15699;SDS011;7950;42.744;23.174;2023-02-26T10:21:22;23.50;;;7.73;;
15699;SDS011;7950;42.744;23.174;2023-02-26T10:23:59;18.90;;;3.77;;
15699;SDS011;7950;42.744;23.174;2023-02-26T10:26:34;17.67;;;5.10;;
15699;SDS011;7950;42.744;23.174;2023-02-26T10:29:10;17.33;;;3.50;;
15699;SDS011;7950;42.744;23.174;2023-02-26T10:31:56;16.60;;;4.53;;
15699;SDS011;7950;42.744;23.174;2023-02-26T10:34:38;16.53;;;4.83;;
15699;SDS011;7950;42.744;23.174;2023-02-26T10:37:18;15.67;;;4.60;;
15699;SDS011;7950;42.744;23.174;2023-02-26T10:39:55;18.07;;;4.40;;
15699;SDS011;7950;42.744;23.174;2023-02-26T10:42:37;24.93;;;5.40;;
15699;SDS011;7950;42.744;23.174;2023-02-26T10:45:13;15.70;;;4.07;;
15699;SDS011;7950;42.744;23.174;2023-02-26T10:48:00;19.30;;;4.37;;
15699;SDS011;7950;42.744;23.174;2023-02-26T10:50:47;15.17;;;4.40;;
15699;SDS011;7950;42.744;23.174;2023-02-26T10:53:19;18.47;;;4.37;;
15699;SDS011;7950;42.744;23.174;2023-02-26T10:55:49;17.47;;;4.37;;
15699;SDS011;7950;42.744;23.174;2023-02-26T10:58:26;20.33;;;4.50;;
15699;SDS011;7950;42.744;23.174;2023-02-26T11:00:55;10.93;;;3.73;;
15699;SDS011;7950;42.744;23.174;2023-02-26T11:03:29;16.80;;;3.93;;
15699;SDS011;7950;42.744;23.174;2023-02-26T11:06:01;20.63;;;4.20;;
15699;SDS011;7950;42.744;23.174;2023-02-26T11:08:32;15.33;;;4.30;;
15699;SDS011;7950;42.744;23.174;2023-02-26T11:11:07;17.00;;;4.43;;
15699;SDS011;7950;42.744;23.174;2023-02-26T11:13:37;17.10;;;3.73;;
15699;SDS011;7950;42.744;23.174;2023-02-26T11:16:09;13.13;;;3.90;;
15699;SDS011;7950;42.744;23.174;2023-02-26T11:18:47;13.07;;;3.83;;
15699;SDS011;7950;42.744;23.174;2023-02-26T11:21:21;19.87;;;4.00;;
15699;SDS011;7950;42.744;23.174;2023-02-26T11:23:55;20.27;;;4.43;;
15699;SDS011;7950;42.744;23.174;2023-02-26T11:26:30;12.53;;;4.70;;
15699;SDS011;7950;42.744;23.174;2023-02-26T11:29:02;16.93;;;4.97;;
15699;SDS011;7950;42.744;23.174;2023-02-26T11:31:32;18.30;;;4.63;;
15699;SDS011;7950;42.744;23.174;2023-02-26T11:34:03;14.77;;;4.43;;
15699;SDS011;7950;42.744;23.174;2023-02-26T11:36:38;19.50;;;4.03;;
15699;SDS011;7950;42.744;23.174;2023-02-26T11:52:17;15.43;;;4.23;;
15699;SDS011;7950;42.744;23.174;2023-02-26T11:54:55;12.97;;;4.80;;
15699;SDS011;7950;42.744;23.174;2023-02-26T11:57:29;20.57;;;4.13;;
15699;SDS011;7950;42.744;23.174;2023-02-26T12:00:00;22.17;;;4.23;;
15699;SDS011;7950;42.744;23.174;2023-02-26T12:02:45;17.73;;;4.27;;
15699;SDS011;7950;42.744;23.174;2023-02-26T12:05:15;14.53;;;5.17;;
15699;SDS011;7950;42.744;23.174;2023-02-26T12:10:53;14.60;;;4.73;;
15699;SDS011;7950;42.744;23.174;2023-02-26T12:13:44;16.80;;;4.80;;
15699;SDS011;7950;42.744;23.174;2023-02-26T12:16:33;18.73;;;4.93;;
15699;SDS011;7950;42.744;23.174;2023-02-26T12:19:20;19.87;;;4.97;;
15699;SDS011;7950;42.744;23.174;2023-02-26T12:22:19;12.17;;;3.87;;
15699;SDS011;7950;42.744;23.174;2023-02-26T12:28:30;18.63;;;4.73;;
15699;SDS011;7950;42.744;23.174;2023-02-26T12:34:35;14.83;;;3.73;;
15699;SDS011;7950;42.744;23.174;2023-02-26T12:37:50;17.77;;;4.17;;
15699;SDS011;7950;42.744;23.174;2023-02-26T12:40:43;12.50;;;3.97;;
15699;SDS011;7950;42.744;23.174;2023-02-26T12:43:52;16.17;;;3.93;;
15699;SDS011;7950;42.744;23.174;2023-02-26T12:46:30;10.97;;;3.33;;
15699;SDS011;7950;42.744;23.174;2023-02-26T12:49:26;18.00;;;3.80;;
15699;SDS011;7950;42.744;23.174;2023-02-26T12:53:13;14.97;;;4.43;;
15699;SDS011;7950;42.744;23.174;2023-02-26T14:08:25;24.30;;;4.17;;
15699;SDS011;7950;42.744;23.174;2023-02-26T14:11:56;16.80;;;3.80;;
15699;SDS011;7950;42.744;23.174;2023-02-26T14:14:33;17.27;;;3.60;;
15699;SDS011;7950;42.744;23.174;2023-02-26T14:26:05;26.50;;;4.73;;
15699;SDS011;7950;42.744;23.174;2023-02-26T14:28:52;20.20;;;4.10;;
15699;SDS011;7950;42.744;23.174;2023-02-26T14:31:24;17.47;;;3.80;;
15699;SDS011;7950;42.744;23.174;2023-02-26T14:33:58;11.10;;;4.00;;
15699;SDS011;7950;42.744;23.174;2023-02-26T14:36:41;17.33;;;3.67;;
15699;SDS011;7950;42.744;23.174;2023-02-26T14:39:20;20.80;;;3.87;;
15699;SDS011;7950;42.744;23.174;2023-02-26T14:41:56;15.73;;;4.57;;
15699;SDS011;7950;42.744;23.174;2023-02-26T14:44:31;17.00;;;3.93;;
15699;SDS011;7950;42.744;23.174;2023-02-26T14:47:05;18.90;;;4.20;;
15699;SDS011;7950;42.744;23.174;2023-02-26T14:49:36;21.37;;;4.30;;
15699;SDS011;7950;42.744;23.174;2023-02-26T14:52:29;16.20;;;3.57;;
15699;SDS011;7950;42.744;23.174;2023-02-26T14:58:40;13.13;;;3.93;;
15699;SDS011;7950;42.744;23.174;2023-02-26T15:01:44;20.23;;;3.60;;
15699;SDS011;7950;42.744;23.174;2023-02-26T15:04:25;19.43;;;4.30;;
15699;SDS011;7950;42.744;23.174;2023-02-26T15:07:31;17.77;;;4.60;;
15699;SDS011;7950;42.744;23.174;2023-02-26T15:10:19;17.27;;;4.40;;
15699;SDS011;7950;42.744;23.174;2023-02-26T15:13:10;11.83;;;4.20;;
15699;SDS011;7950;42.744;23.174;2023-02-26T15:15:56;11.90;;;3.73;;
15699;SDS011;7950;42.744;23.174;2023-02-26T15:19:15;14.60;;;4.17;;
15699;SDS011;7950;42.744;23.174;2023-02-26T15:22:12;11.80;;;4.10;;
15699;SDS011;7950;42.744;23.174;2023-02-26T15:24:59;12.63;;;3.97;;
15699;SDS011;7950;42.744;23.174;2023-02-26T15:27:29;14.53;;;4.10;;
15699;SDS011;7950;42.744;23.174;2023-02-26T15:30:01;12.50;;;3.60;;
15699;SDS011;7950;42.744;23.174;2023-02-26T15:32:34;12.90;;;3.87;;
15699;SDS011;7950;42.744;23.174;2023-02-26T15:35:14;16.60;;;5.13;;
15699;SDS011;7950;42.744;23.174;2023-02-26T15:37:47;11.43;;;4.00;;
15699;SDS011;7950;42.744;23.174;2023-02-26T15:40:17;12.93;;;4.77;;
15699;SDS011;7950;42.744;23.174;2023-02-26T15:42:47;17.40;;;4.53;;
15699;SDS011;7950;42.744;23.174;2023-02-26T15:45:23;13.70;;;4.70;;
15699;SDS011;7950;42.744;23.174;2023-02-26T15:47:58;15.17;;;4.03;;
15699;SDS011;7950;42.744;23.174;2023-02-26T15:50:35;15.73;;;4.60;;
15699;SDS011;7950;42.744;23.174;2023-02-26T15:53:07;12.03;;;3.90;;
15699;SDS011;7950;42.744;23.174;2023-02-26T15:55:48;17.90;;;3.93;;
15699;SDS011;7950;42.744;23.174;2023-02-26T15:58:25;13.87;;;4.30;;
15699;SDS011;7950;42.744;23.174;2023-02-26T16:01:04;10.10;;;3.70;;
15699;SDS011;7950;42.744;23.174;2023-02-26T16:03:40;13.10;;;4.30;;
15699;SDS011;7950;42.744;23.174;2023-02-26T16:06:10;9.87;;;4.70;;
15699;SDS011;7950;42.744;23.174;2023-02-26T16:08:42;13.20;;;3.93;;
15699;SDS011;7950;42.744;23.174;2023-02-26T16:11:11;13.60;;;3.83;;
15699;SDS011;7950;42.744;23.174;2023-02-26T16:13:42;11.20;;;4.33;;
15699;SDS011;7950;42.744;23.174;2023-02-26T16:16:14;12.83;;;4.33;;
15699;SDS011;7950;42.744;23.174;2023-02-26T16:18:56;9.93;;;4.37;;
15699;SDS011;7950;42.744;23.174;2023-02-26T16:21:26;11.93;;;4.67;;
15699;SDS011;7950;42.744;23.174;2023-02-26T16:24:01;10.83;;;4.17;;
15699;SDS011;7950;42.744;23.174;2023-02-26T16:26:52;10.93;;;4.07;;
15699;SDS011;7950;42.744;23.174;2023-02-26T16:29:27;12.13;;;4.00;;
15699;SDS011;7950;42.744;23.174;2023-02-26T16:32:00;11.13;;;4.07;;
15699;SDS011;7950;42.744;23.174;2023-02-26T16:34:32;16.13;;;4.13;;
15699;SDS011;7950;42.744;23.174;2023-02-26T16:37:10;15.07;;;5.33;;
15699;SDS011;7950;42.744;23.174;2023-02-26T16:42:53;9.77;;;3.67;;
15699;SDS011;7950;42.744;23.174;2023-02-26T16:45:42;12.13;;;3.90;;
15699;SDS011;7950;42.744;23.174;2023-02-26T16:48:20;12.10;;;3.97;;
15699;SDS011;7950;42.744;23.174;2023-02-26T16:50:55;11.87;;;3.97;;
15699;SDS011;7950;42.744;23.174;2023-02-26T16:53:31;10.13;;;4.27;;
15699;SDS011;7950;42.744;23.174;2023-02-26T16:56:04;11.33;;;4.40;;
15699;SDS011;7950;42.744;23.174;2023-02-26T16:58:33;13.50;;;4.10;;
15699;SDS011;7950;42.744;23.174;2023-02-26T17:01:04;11.67;;;3.93;;
15699;SDS011;7950;42.744;23.174;2023-02-26T17:03:37;18.27;;;5.47;;
15699;SDS011;7950;42.744;23.174;2023-02-26T17:06:07;13.10;;;4.03;;
15699;SDS011;7950;42.744;23.174;2023-02-26T17:08:41;13.57;;;4.50;;
15699;SDS011;7950;42.744;23.174;2023-02-26T17:11:18;13.30;;;4.60;;
15699;SDS011;7950;42.744;23.174;2023-02-26T17:14:08;13.40;;;4.80;;
15699;SDS011;7950;42.744;23.174;2023-02-26T17:16:44;12.40;;;4.20;;
15699;SDS011;7950;42.744;23.174;2023-02-26T17:19:15;14.47;;;6.70;;
15699;SDS011;7950;42.744;23.174;2023-02-26T17:21:45;17.77;;;7.30;;
15699;SDS011;7950;42.744;23.174;2023-02-26T17:24:17;17.73;;;6.30;;
15699;SDS011;7950;42.744;23.174;2023-02-26T17:26:51;18.57;;;6.40;;
15699;SDS011;7950;42.744;23.174;2023-02-26T17:29:21;11.70;;;6.10;;
15699;SDS011;7950;42.744;23.174;2023-02-26T17:31:58;16.33;;;5.53;;
15699;SDS011;7950;42.744;23.174;2023-02-26T17:34:29;14.20;;;5.73;;
15699;SDS011;7950;42.744;23.174;2023-02-26T17:36:57;15.57;;;6.00;;
15699;SDS011;7950;42.744;23.174;2023-02-26T17:39:30;11.80;;;4.47;;
15699;SDS011;7950;42.744;23.174;2023-02-26T17:41:59;17.67;;;5.13;;
15699;SDS011;7950;42.744;23.174;2023-02-26T17:44:28;15.10;;;5.47;;
15699;SDS011;7950;42.744;23.174;2023-02-26T17:46:56;30.50;;;10.73;;